Jemila — 2IWQ6 — position and weather

sailwx.info

Track history (hours):
 
Tides and Currents Weather Stations Pressure Air Temp Water Temp Dewpoint Dewpoint Depression Visibility Wind Speed Wind Dir Waves Ship Positions

Jemila

Last reported at 2017-Oct-05 18:17 UTC. Time now 2017-Nov-18 23:37 UTC.
Position N 37°04' W 008°18'.
Warning: this ship's position is 44 days out of date.

Length 12 m.

Type: Sailing vessel. MMSI: 235113398.

Date/timePositionNaut miles runAvg speedWind from/ knotsBaromVisibWave heightAir tempDewpointWater temp
2017-Oct-05 18:17N 37°04' W 008°18'2 5.5
2017-Oct-05 18:00N 37°04' W 008°20'68 1.4
2017-Oct-03 17:16N 37°57' W 009°14'2 5.7
2017-Oct-03 17:00N 37°58' W 009°14'3 5.9
2017-Oct-03 16:30N 38°01' W 009°15'32 5.5
2017-Oct-03 10:45N 38°33' W 009°21'2 5.7
2017-Oct-03 10:29N 38°34' W 009°22'3 5.6
2017-Oct-03 09:59N 38°37' W 009°23'3 5.6
2017-Oct-03 09:30N 38°40' W 009°23'2 4.2
2017-Oct-03 08:59N 38°42' W 009°24'1 0.5
2017-Oct-03 07:53N 38°41' W 009°25'0 0.0
2017-Oct-03 07:23N 38°41' W 009°25'0 0.0
2017-Oct-02 19:14N 38°41' W 009°25'0 0.0
2017-Oct-02 18:53N 38°41' W 009°25'  
Track history (hours):
 
Tides and Currents Weather Stations Pressure Air Temp Water Temp Dewpoint Dewpoint Depression Visibility Wind Speed Wind Dir Waves Ship Positions

Jemila

Last reported at 2017-Oct-05 18:17 UTC. Time now 2017-Nov-18 23:37 UTC.
Position N 37°04' W 008°18'.
Warning: this ship's position is 44 days out of date.

Length 12 m.

Type: Sailing vessel. MMSI: 235113398.

Date/timePositionNaut miles runAvg speedWind from/ knotsBaromVisibWave heightAir tempDewpointWater temp
2017-Oct-05 18:17N 37°04' W 008°18'2 5.5
2017-Oct-05 18:00N 37°04' W 008°20'68 1.4
2017-Oct-03 17:16N 37°57' W 009°14'2 5.7
2017-Oct-03 17:00N 37°58' W 009°14'3 5.9
2017-Oct-03 16:30N 38°01' W 009°15'32 5.5
2017-Oct-03 10:45N 38°33' W 009°21'2 5.7
2017-Oct-03 10:29N 38°34' W 009°22'3 5.6
2017-Oct-03 09:59N 38°37' W 009°23'3 5.6
2017-Oct-03 09:30N 38°40' W 009°23'2 4.2
2017-Oct-03 08:59N 38°42' W 009°24'1 0.5
2017-Oct-03 07:53N 38°41' W 009°25'0 0.0
2017-Oct-03 07:23N 38°41' W 009°25'0 0.0
2017-Oct-02 19:14N 38°41' W 009°25'0 0.0
2017-Oct-02 18:53N 38°41' W 009°25'  

Dump ship's entire track history